Time;durP1;ratioP1;P1;durP2;ratioP2;P2;SDS_P1;SDS_P2;PMS_P1;PMS_P2;Temp;Humidity;BMP_temperature;BMP_pressure;BME280_temperature;BME280_humidity;BME280_pressure;Samples;Min_cycle;Max_cycle;Signal;HPM_P1;HPM_P2
2021/06/07 00:01:35;;;;;;;30.58;20.58;;;16.30;58.70;;;;;;5126596;27;20046;-65
2021/06/07 00:04:24;;;;;;;31.50;20.63;;;16.20;57.80;;;;;;5125527;27;20051;-66
2021/06/07 00:07:14;;;;;;;30.63;20.02;;;16.20;58.50;;;;;;5133278;27;20138;-66
2021/06/07 00:10:02;;;;;;;31.60;21.02;;;16.20;58.90;;;;;;5129364;27;20035;-65
2021/06/07 00:12:50;;;;;;;28.77;20.30;;;16.20;59.00;;;;;;5131918;27;20051;-65
2021/06/07 00:15:39;;;;;;;29.38;21.00;;;16.20;59.10;;;;;;5131220;27;20116;-66
2021/06/07 00:18:27;;;;;;;28.95;20.63;;;16.10;58.80;;;;;;5126701;27;20065;-66
2021/06/07 00:21:20;;;;;;;28.90;20.65;;;16.20;58.90;;;;;;5126247;27;20135;-67
2021/06/07 00:24:11;;;;;;;28.20;20.15;;;16.10;58.90;;;;;;5124151;27;20058;-67
2021/06/07 00:26:59;;;;;;;33.00;21.00;;;16.20;59.00;;;;;;5130958;27;20841;-67
2021/06/07 00:29:47;;;;;;;26.70;19.05;;;16.10;58.80;;;;;;5132099;27;20043;-67
2021/06/07 00:32:35;;;;;;;30.42;20.80;;;16.10;58.90;;;;;;5128863;27;20304;-67
2021/06/07 00:35:24;;;;;;;30.90;20.88;;;16.20;59.00;;;;;;5124508;27;20043;-67
2021/06/07 00:38:12;;;;;;;32.00;20.65;;;16.10;58.90;;;;;;5123624;27;20050;-67
2021/06/07 00:41:04;;;;;;;28.48;20.13;;;16.20;59.00;;;;;;5127618;27;20047;-67
2021/06/07 00:43:54;;;;;;;28.30;19.20;;;16.10;58.90;;;;;;5115422;27;20401;-66
2021/06/07 00:46:42;;;;;;;30.10;20.25;;;16.10;58.90;;;;;;5130327;27;20188;-67
2021/06/07 00:49:30;;;;;;;30.23;20.08;;;16.10;59.00;;;;;;5122893;27;20051;-67
2021/06/07 00:52:18;;;;;;;31.25;20.65;;;16.10;59.20;;;;;;5121210;27;20043;-66
2021/06/07 00:55:07;;;;;;;27.85;20.08;;;16.00;59.80;;;;;;5122562;27;20057;-66
2021/06/07 00:57:56;;;;;;;33.45;21.58;;;16.00;60.30;;;;;;5122626;27;20501;-66
2021/06/07 01:00:45;;;;;;;34.15;21.92;;;16.00;60.20;;;;;;5106518;27;20054;-67
2021/06/07 01:03:34;;;;;;;33.00;21.30;;;16.00;60.50;;;;;;5122449;27;20183;-66
2021/06/07 01:06:23;;;;;;;30.58;20.33;;;16.00;60.60;;;;;;5131470;27;20122;-67
2021/06/07 01:09:11;;;;;;;31.88;21.08;;;15.90;60.90;;;;;;5126413;27;20131;-66
2021/06/07 01:12:01;;;;;;;38.10;21.60;;;15.90;61.30;;;;;;5127034;27;20760;-67
2021/06/07 01:14:53;;;;;;;35.35;21.10;;;16.00;61.90;;;;;;5129044;27;20061;-66
2021/06/07 01:17:41;;;;;;;35.67;23.08;;;15.90;61.00;;;;;;5129736;27;20524;-67
2021/06/07 01:20:29;;;;;;;36.30;22.27;;;16.00;61.40;;;;;;5118130;27;20043;-67
2021/06/07 01:23:19;;;;;;;35.80;21.98;;;16.00;60.70;;;;;;5129933;27;20045;-67
2021/06/07 01:26:08;;;;;;;36.10;22.98;;;16.00;60.60;;;;;;5125310;27;20050;-67
2021/06/07 01:28:56;;;;;;;40.00;22.83;;;16.00;60.60;;;;;;5131093;27;20047;-66
2021/06/07 01:31:44;;;;;;;38.90;23.50;;;15.90;60.60;;;;;;5124130;27;20047;-65
2021/06/07 01:34:34;;;;;;;41.03;23.10;;;15.90;59.70;;;;;;5124703;27;20242;-66
2021/06/07 01:37:21;;;;;;;38.90;24.02;;;15.80;60.70;;;;;;5126644;27;20142;-67
2021/06/07 01:40:14;;;;;;;42.35;24.38;;;15.90;61.10;;;;;;5129219;27;20047;-66
2021/06/07 01:43:03;;;;;;;45.88;24.55;;;15.80;60.40;;;;;;5130547;27;20134;-66
2021/06/07 01:45:52;;;;;;;42.45;23.77;;;15.80;61.40;;;;;;5126995;27;20463;-66
2021/06/07 01:48:40;;;;;;;42.22;24.25;;;15.70;61.70;;;;;;5122500;27;20043;-66
2021/06/07 01:51:28;;;;;;;45.03;24.70;;;15.60;62.00;;;;;;5124682;27;20043;-67
2021/06/07 01:54:16;;;;;;;42.00;24.85;;;15.70;62.70;;;;;;5129214;27;20126;-65
2021/06/07 01:57:07;;;;;;;45.80;24.85;;;15.60;61.90;;;;;;5125977;27;20047;-65
2021/06/07 01:59:55;;;;;;;43.15;25.30;;;15.70;62.40;;;;;;5120605;27;20065;-65
2021/06/07 02:02:44;;;;;;;46.53;25.90;;;15.70;61.70;;;;;;5127536;27;20053;-64
2021/06/07 02:05:34;;;;;;;47.90;24.88;;;15.70;61.80;;;;;;5124003;27;20421;-64
2021/06/07 02:08:23;;;;;;;42.70;25.25;;;15.70;61.50;;;;;;5122735;27;20068;-64
2021/06/07 02:11:12;;;;;;;46.85;25.70;;;15.70;62.30;;;;;;5127075;27;20482;-64
2021/06/07 02:14:04;;;;;;;47.70;27.42;;;15.60;61.40;;;;;;5125368;27;20055;-64
2021/06/07 02:16:52;;;;;;;46.15;25.50;;;15.70;62.00;;;;;;5124432;27;20043;-65
2021/06/07 02:19:43;;;;;;;50.00;26.55;;;15.80;61.30;;;;;;5122748;27;20130;-64
2021/06/07 02:22:34;;;;;;;45.22;24.92;;;15.80;60.50;;;;;;5123218;27;20043;-64
2021/06/07 02:25:23;;;;;;;49.60;26.67;;;15.80;60.80;;;;;;5126956;27;20043;-64
2021/06/07 02:28:12;;;;;;;42.83;24.33;;;15.70;61.00;;;;;;5123029;27;20499;-65
2021/06/07 02:31:02;;;;;;;42.00;23.73;;;15.70;62.20;;;;;;5125688;27;20045;-64
2021/06/07 02:33:51;;;;;;;42.90;25.23;;;15.60;62.70;;;;;;5125599;27;20035;-65
2021/06/07 02:36:41;;;;;;;48.22;25.48;;;15.60;63.30;;;;;;5129278;27;20527;-63
2021/06/07 02:39:29;;;;;;;44.78;26.55;;;15.60;63.10;;;;;;5124810;27;20058;-64
2021/06/07 02:42:18;;;;;;;44.45;23.88;;;15.60;63.60;;;;;;5127628;27;20035;-64
2021/06/07 02:45:09;;;;;;;52.97;27.30;;;15.60;62.70;;;;;;5123988;27;20066;-64
2021/06/07 02:48:00;;;;;;;46.15;26.10;;;15.60;62.90;;;;;;5133246;27;20047;-64
2021/06/07 02:50:48;;;;;;;44.70;25.40;;;15.60;62.60;;;;;;5126320;27;20108;-65
2021/06/07 02:53:36;;;;;;;51.60;26.17;;;15.60;62.60;;;;;;5135146;27;20080;-65
2021/06/07 02:56:24;;;;;;;51.08;26.50;;;15.60;62.80;;;;;;5128501;27;20083;-64
2021/06/07 02:59:12;;;;;;;50.70;27.13;;;15.60;62.60;;;;;;5123309;27;20043;-63
2021/06/07 03:02:00;;;;;;;48.55;26.38;;;15.60;62.40;;;;;;5131953;27;20426;-64
2021/06/07 03:04:49;;;;;;;48.20;25.63;;;15.60;62.60;;;;;;5130965;27;20043;-64
2021/06/07 03:07:37;;;;;;;47.08;25.15;;;15.60;62.60;;;;;;5116875;27;20050;-65
2021/06/07 03:10:26;;;;;;;49.55;27.75;;;15.60;62.60;;;;;;5125776;27;20043;-65
2021/06/07 03:13:14;;;;;;;49.20;26.60;;;15.60;62.80;;;;;;5131382;27;20128;-65
2021/06/07 03:16:02;;;;;;;55.33;27.35;;;15.60;62.90;;;;;;5125358;27;20122;-64
2021/06/07 03:18:50;;;;;;;52.42;25.85;;;15.60;62.60;;;;;;5126945;27;20055;-64
2021/06/07 03:21:39;;;;;;;55.08;28.58;;;15.60;63.30;;;;;;5128149;27;20489;-65
2021/06/07 03:24:27;;;;;;;52.65;28.40;;;15.60;63.80;;;;;;5131695;27;20047;-65
2021/06/07 03:27:18;;;;;;;48.15;26.50;;;15.60;63.60;;;;;;5132530;27;20482;-66
2021/06/07 03:30:08;;;;;;;51.88;27.20;;;15.70;63.70;;;;;;5126518;27;20039;-66
2021/06/07 03:32:57;;;;;;;53.00;26.83;;;15.70;63.10;;;;;;5110814;27;20125;-65
2021/06/07 03:35:48;;;;;;;54.78;27.48;;;15.70;63.50;;;;;;5127749;27;20404;-64
2021/06/07 03:38:37;;;;;;;47.38;26.48;;;15.70;63.20;;;;;;5129555;27;20432;-65
2021/06/07 03:41:25;;;;;;;53.55;27.27;;;15.60;63.10;;;;;;5131739;27;20047;-65
2021/06/07 03:44:15;;;;;;;49.60;27.65;;;15.70;63.60;;;;;;5130293;27;20047;-65
2021/06/07 03:47:04;;;;;;;49.17;27.27;;;15.70;63.80;;;;;;5113170;27;20405;-63
2021/06/07 03:49:52;;;;;;;49.72;27.00;;;15.70;63.50;;;;;;5125990;27;20043;-64
2021/06/07 03:52:40;;;;;;;45.72;26.88;;;15.60;62.70;;;;;;5126875;27;20168;-64
2021/06/07 03:55:30;;;;;;;50.72;27.40;;;15.60;63.90;;;;;;5117379;27;20039;-65
2021/06/07 03:58:18;;;;;;;47.22;26.52;;;15.60;63.60;;;;;;5128312;27;20141;-65
2021/06/07 04:01:06;;;;;;;51.17;26.85;;;15.60;63.90;;;;;;5128840;27;20066;-65
2021/06/07 04:03:54;;;;;;;50.38;28.67;;;15.60;63.40;;;;;;5128414;27;20729;-64
2021/06/07 04:06:43;;;;;;;47.58;27.08;;;15.60;63.90;;;;;;5126330;27;20051;-64
2021/06/07 04:09:31;;;;;;;48.33;26.98;;;15.60;64.20;;;;;;5130620;27;20409;-64
2021/06/07 04:12:20;;;;;;;49.05;26.77;;;15.60;64.30;;;;;;5130091;27;20061;-65
2021/06/07 04:15:09;;;;;;;52.30;25.63;;;15.60;64.40;;;;;;5124130;27;20525;-65
2021/06/07 04:17:58;;;;;;;46.63;25.17;;;15.60;63.90;;;;;;5124163;27;20056;-64
2021/06/07 04:20:46;;;;;;;50.90;26.55;;;15.50;64.10;;;;;;5128592;27;20191;-64
2021/06/07 04:23:34;;;;;;;44.80;25.70;;;15.60;64.40;;;;;;5128695;27;20139;-64
2021/06/07 04:26:22;;;;;;;50.22;28.38;;;15.60;64.50;;;;;;5133788;27;20068;-65
2021/06/07 04:29:11;;;;;;;48.45;26.63;;;15.50;64.90;;;;;;5122277;27;20054;-65
2021/06/07 04:32:00;;;;;;;49.80;27.58;;;15.50;65.00;;;;;;5124181;27;20051;-65
2021/06/07 04:34:47;;;;;;;51.13;26.48;;;15.50;65.70;;;;;;5127531;27;20046;-65
2021/06/07 04:37:39;;;;;;;47.38;26.80;;;15.50;65.20;;;;;;5134713;27;20083;-65
2021/06/07 04:40:29;;;;;;;49.90;26.98;;;15.50;65.70;;;;;;5127465;27;20035;-66
2021/06/07 04:43:17;;;;;;;52.22;26.70;;;15.60;66.10;;;;;;5131416;27;20050;-66
2021/06/07 04:46:06;;;;;;;45.95;25.75;;;15.50;65.20;;;;;;5128263;27;20069;-65
2021/06/07 04:48:54;;;;;;;53.40;26.35;;;15.60;66.70;;;;;;5124660;27;20046;-65
2021/06/07 04:51:42;;;;;;;47.67;25.45;;;15.60;66.80;;;;;;5112111;27;20043;-65
2021/06/07 04:54:30;;;;;;;50.13;26.35;;;15.50;65.90;;;;;;5099360;27;20520;-64
2021/06/07 04:57:18;;;;;;;47.60;26.73;;;15.60;66.00;;;;;;5131908;27;20473;-64
2021/06/07 05:00:07;;;;;;;50.40;26.73;;;15.60;66.70;;;;;;5123239;27;20048;-65
2021/06/07 05:02:56;;;;;;;51.83;27.45;;;15.60;66.90;;;;;;5123773;27;20465;-64
2021/06/07 05:05:45;;;;;;;48.95;25.30;;;15.50;66.80;;;;;;5129228;27;20051;-64
2021/06/07 05:08:33;;;;;;;50.42;25.83;;;15.50;66.80;;;;;;5126728;27;20046;-65
2021/06/07 05:11:27;;;;;;;53.00;25.55;;;15.50;68.40;;;;;;5126997;27;20070;-66
2021/06/07 05:14:15;;;;;;;53.15;26.85;;;15.50;69.70;;;;;;5122161;27;20039;-64
2021/06/07 05:17:09;;;;;;;57.20;28.20;;;15.40;70.80;;;;;;5112672;27;20066;-65
2021/06/07 05:19:59;;;;;;;60.67;28.58;;;15.50;70.90;;;;;;5124894;27;20080;-64
2021/06/07 05:22:48;;;;;;;64.78;30.48;;;15.40;70.90;;;;;;5127333;27;20574;-64
2021/06/07 05:25:37;;;;;;;56.42;30.45;;;15.50;71.50;;;;;;5125092;27;20047;-63
2021/06/07 05:28:25;;;;;;;62.17;30.30;;;15.50;71.70;;;;;;5123224;27;20490;-64
2021/06/07 05:31:13;;;;;;;58.90;30.13;;;15.50;71.90;;;;;;5115456;27;20493;-63
2021/06/07 05:34:01;;;;;;;65.05;30.23;;;15.50;72.20;;;;;;5126103;27;20674;-63
2021/06/07 05:36:50;;;;;;;63.58;30.45;;;15.50;72.40;;;;;;5129408;27;20051;-65
2021/06/07 05:39:38;;;;;;;60.00;29.15;;;15.50;72.40;;;;;;5111021;27;20051;-63
2021/06/07 05:42:27;;;;;;;61.65;28.10;;;15.50;72.60;;;;;;5122630;27;20154;-64
2021/06/07 05:45:16;;;;;;;60.50;28.73;;;15.60;73.00;;;;;;5128802;27;20131;-64
2021/06/07 05:48:05;;;;;;;66.00;31.23;;;15.50;72.90;;;;;;5125730;27;20066;-64
2021/06/07 05:50:53;;;;;;;68.63;33.65;;;15.50;73.00;;;;;;5134022;27;20489;-66
2021/06/07 05:53:43;;;;;;;65.68;32.45;;;15.50;74.10;;;;;;5129924;27;20138;-66
2021/06/07 05:56:31;;;;;;;51.33;28.17;;;15.60;74.60;;;;;;5128892;27;20520;-64
2021/06/07 05:59:20;;;;;;;53.63;27.50;;;15.50;74.30;;;;;;5119948;27;20480;-65
2021/06/07 06:02:08;;;;;;;51.63;27.42;;;15.60;74.80;;;;;;5116252;27;20043;-65
2021/06/07 06:04:56;;;;;;;53.05;24.90;;;15.50;74.90;;;;;;5126052;27;20500;-65
2021/06/07 06:07:45;;;;;;;50.30;26.65;;;15.50;74.70;;;;;;5130369;27;20128;-64
2021/06/07 06:10:36;;;;;;;56.95;26.17;;;15.50;74.70;;;;;;5127148;27;20123;-65
2021/06/07 06:13:24;;;;;;;52.25;26.60;;;15.70;75.20;;;;;;5123765;27;20039;-65
2021/06/07 06:16:12;;;;;;;54.90;25.73;;;15.70;75.10;;;;;;5124621;27;20146;-64
2021/06/07 06:19:00;;;;;;;46.97;24.65;;;15.70;74.70;;;;;;5125419;27;20133;-66
2021/06/07 06:21:48;;;;;;;52.97;24.98;;;15.60;74.80;;;;;;5129389;27;20168;-65
2021/06/07 06:24:35;;;;;;;49.95;24.35;;;15.60;74.90;;;;;;5129859;27;20043;-64
2021/06/07 06:27:25;;;;;;;47.90;24.05;;;15.70;75.10;;;;;;5130339;27;20047;-65
2021/06/07 06:30:17;;;;;;;51.40;24.98;;;15.70;75.10;;;;;;5128586;27;20123;-65
2021/06/07 06:33:05;;;;;;;45.38;24.42;;;15.70;74.80;;;;;;5131740;27;20051;-64
2021/06/07 06:35:53;;;;;;;46.95;23.98;;;15.70;74.90;;;;;;5132318;27;20496;-65
2021/06/07 06:38:41;;;;;;;45.88;22.92;;;15.80;75.20;;;;;;5123129;27;20058;-65
2021/06/07 06:41:30;;;;;;;41.63;23.05;;;15.70;74.90;;;;;;5129551;27;20039;-64
2021/06/07 06:44:19;;;;;;;41.50;20.83;;;15.70;75.40;;;;;;5127182;27;20140;-64
2021/06/07 06:47:07;;;;;;;38.38;22.35;;;15.70;74.80;;;;;;5131764;27;20482;-65
2021/06/07 06:49:55;;;;;;;49.15;23.35;;;15.70;75.10;;;;;;5123312;27;20046;-65
2021/06/07 06:52:43;;;;;;;42.13;22.88;;;15.80;75.30;;;;;;5125887;27;20274;-64
2021/06/07 06:55:31;;;;;;;43.80;22.80;;;15.80;75.30;;;;;;5128153;27;20060;-65
2021/06/07 06:58:20;;;;;;;37.80;21.67;;;15.80;75.20;;;;;;5125377;27;20051;-65
2021/06/07 07:01:09;;;;;;;35.42;22.23;;;15.80;75.30;;;;;;5130164;27;20046;-65
2021/06/07 07:03:57;;;;;;;37.22;21.73;;;15.80;75.30;;;;;;5107104;27;20061;-65
2021/06/07 07:06:45;;;;;;;38.58;21.67;;;15.80;75.30;;;;;;5125254;27;20054;-65
2021/06/07 07:09:33;;;;;;;41.00;21.65;;;15.80;75.40;;;;;;5131356;27;20125;-65
2021/06/07 07:12:24;;;;;;;43.78;20.45;;;15.90;75.60;;;;;;5128673;27;20521;-64
2021/06/07 07:15:12;;;;;;;38.33;20.92;;;15.80;75.40;;;;;;5126372;27;20493;-64
2021/06/07 07:18:02;;;;;;;39.67;21.35;;;15.90;75.80;;;;;;5127538;27;20473;-64
2021/06/07 07:20:50;;;;;;;40.80;20.15;;;16.00;75.90;;;;;;5127135;27;20156;-65
2021/06/07 07:23:38;;;;;;;41.15;21.23;;;15.80;75.30;;;;;;5127809;27;20099;-65
2021/06/07 07:26:26;;;;;;;39.20;21.90;;;16.00;75.80;;;;;;5126617;27;20130;-64
2021/06/07 07:29:14;;;;;;;37.42;20.10;;;15.90;75.70;;;;;;5126480;27;20143;-64
2021/06/07 07:32:02;;;;;;;44.67;21.30;;;16.10;75.90;;;;;;5122817;27;20043;-64
2021/06/07 07:34:52;;;;;;;33.42;20.05;;;16.00;75.20;;;;;;5122758;27;20055;-64
2021/06/07 07:37:41;;;;;;;39.30;20.42;;;16.10;74.70;;;;;;5128816;27;20047;-64
2021/06/07 07:40:29;;;;;;;35.28;20.08;;;16.20;75.20;;;;;;5127766;27;20470;-64
2021/06/07 07:43:17;;;;;;;36.47;19.40;;;16.10;74.40;;;;;;5126550;27;20126;-65
2021/06/07 07:46:05;;;;;;;39.58;20.45;;;16.10;75.40;;;;;;5126878;27;20184;-65
2021/06/07 07:48:53;;;;;;;40.10;20.48;;;16.20;75.10;;;;;;5130135;27;20063;-64
2021/06/07 07:51:43;;;;;;;35.35;18.27;;;16.30;74.80;;;;;;5126684;27;20539;-64
2021/06/07 07:54:32;;;;;;;33.88;18.75;;;16.20;74.20;;;;;;5125991;27;20038;-64
2021/06/07 07:57:21;;;;;;;32.13;18.88;;;16.20;74.10;;;;;;5110465;27;20067;-64
2021/06/07 08:00:11;;;;;;;32.67;19.13;;;16.20;73.70;;;;;;5127488;27;20046;-64
2021/06/07 08:02:59;;;;;;;31.70;19.67;;;16.30;74.00;;;;;;5126302;27;20456;-65
2021/06/07 08:05:48;;;;;;;33.35;19.38;;;16.40;73.60;;;;;;5126500;27;20051;-65
2021/06/07 08:08:37;;;;;;;35.72;21.90;;;16.30;71.90;;;;;;5126609;27;20100;-65
2021/06/07 08:11:25;;;;;;;35.95;20.45;;;16.30;71.80;;;;;;5124322;27;20051;-65
2021/06/07 08:14:15;;;;;;;32.75;19.27;;;16.30;71.80;;;;;;5132665;27;20061;-64
2021/06/07 08:17:03;;;;;;;27.92;18.30;;;16.30;72.20;;;;;;5132242;27;20505;-64
2021/06/07 08:19:51;;;;;;;31.55;18.15;;;16.50;72.70;;;;;;5126611;27;20108;-65
2021/06/07 08:22:39;;;;;;;33.38;19.02;;;16.60;69.60;;;;;;5121955;27;20104;-66
2021/06/07 08:25:29;;;;;;;29.42;17.75;;;16.80;69.00;;;;;;5127542;27;20120;-65
2021/06/07 08:28:17;;;;;;;22.65;16.10;;;16.90;65.10;;;;;;5132506;27;20043;-65
2021/06/07 08:31:05;;;;;;;29.02;17.65;;;17.20;64.20;;;;;;5122374;27;20133;-65
2021/06/07 08:33:53;;;;;;;26.90;17.25;;;17.20;63.50;;;;;;5125822;27;20071;-65
2021/06/07 08:36:41;;;;;;;23.85;16.20;;;17.30;61.90;;;;;;5106964;27;20446;-65
2021/06/07 08:39:29;;;;;;;26.33;16.95;;;17.00;60.50;;;;;;5114335;27;20060;-65
2021/06/07 08:42:18;;;;;;;25.83;17.23;;;16.80;63.20;;;;;;5129369;27;20097;-65
2021/06/07 08:45:08;;;;;;;34.13;18.02;;;16.70;64.50;;;;;;5118327;27;20054;-65
2021/06/07 08:47:56;;;;;;;29.73;17.67;;;16.80;67.60;;;;;;5128090;27;20053;-65
2021/06/07 08:50:46;;;;;;;26.10;17.38;;;16.70;65.40;;;;;;5127145;27;20047;-64
2021/06/07 08:53:34;;;;;;;27.13;17.35;;;16.80;65.80;;;;;;5131197;27;20184;-65
2021/06/07 08:56:22;;;;;;;27.40;17.88;;;16.80;65.10;;;;;;5129470;27;20504;-65
2021/06/07 08:59:12;;;;;;;28.38;18.17;;;17.10;66.80;;;;;;5122227;27;20178;-65
2021/06/07 09:02:02;;;;;;;31.30;18.67;;;17.20;62.80;;;;;;5125033;27;20175;-65
2021/06/07 09:04:52;;;;;;;26.92;17.63;;;17.00;63.10;;;;;;5122684;27;20066;-65
2021/06/07 09:08:02;;;;;;;26.92;17.40;;;17.00;63.90;;;;;;5130996;27;20130;-64
2021/06/07 09:10:51;;;;;;;28.15;17.83;;;17.00;61.40;;;;;;5128473;27;20513;-65
2021/06/07 09:13:40;;;;;;;25.10;17.27;;;17.10;63.40;;;;;;5108067;27;20039;-64
2021/06/07 09:16:39;;;;;;;23.92;16.77;;;17.10;62.50;;;;;;5123915;27;20039;-65
2021/06/07 09:19:29;;;;;;;28.65;17.25;;;17.20;62.90;;;;;;5129899;27;20049;-65
2021/06/07 09:22:22;;;;;;;24.05;16.88;;;17.20;64.00;;;;;;5125694;27;20157;-65
2021/06/07 09:25:12;;;;;;;28.98;17.13;;;17.40;60.40;;;;;;5124801;27;20053;-65
2021/06/07 09:28:11;;;;;;;28.10;18.27;;;17.50;61.30;;;;;;5124447;27;20055;-65
2021/06/07 09:31:01;;;;;;;26.70;17.98;;;17.60;59.60;;;;;;5123968;27;20416;-65
2021/06/07 09:33:51;;;;;;;32.15;17.70;;;17.70;58.00;;;;;;5125121;27;20035;-65
2021/06/07 09:37:04;;;;;;;28.15;16.85;;;17.60;58.90;;;;;;5130846;27;20043;-65
2021/06/07 09:39:52;;;;;;;21.38;16.17;;;17.60;56.70;;;;;;5126458;27;20563;-65
2021/06/07 09:42:54;;;;;;;26.83;18.25;;;17.50;57.90;;;;;;5126914;27;20047;-65
2021/06/07 09:45:45;;;;;;;23.83;17.42;;;17.20;60.50;;;;;;5125096;27;20051;-65
2021/06/07 09:48:33;;;;;;;32.97;19.33;;;17.10;61.60;;;;;;5123045;27;20042;-64
2021/06/07 09:51:22;;;;;;;25.52;17.15;;;17.30;62.90;;;;;;5124817;27;20498;-65
2021/06/07 09:54:14;;;;;;;24.90;17.65;;;17.30;61.80;;;;;;5111609;27;20597;-65
2021/06/07 09:57:03;;;;;;;27.52;17.73;;;17.40;60.10;;;;;;5127238;27;20464;-64
2021/06/07 09:59:51;;;;;;;26.20;17.60;;;17.50;60.90;;;;;;5125671;27;20051;-64
2021/06/07 10:02:39;;;;;;;24.17;16.92;;;17.50;60.10;;;;;;5127117;27;20047;-65
2021/06/07 10:05:33;;;;;;;29.73;17.77;;;17.50;57.00;;;;;;5131051;27;20038;-65
2021/06/07 10:08:23;;;;;;;27.67;18.08;;;17.90;56.90;;;;;;5125582;27;20047;-66
2021/06/07 10:11:20;;;;;;;20.40;15.90;;;17.90;53.60;;;;;;5126612;27;20043;-66
2021/06/07 10:14:09;;;;;;;22.60;16.67;;;17.90;53.30;;;;;;5128442;27;20035;-66
2021/06/07 10:17:01;;;;;;;23.35;16.65;;;17.70;54.70;;;;;;5131257;27;20124;-65
2021/06/07 10:20:46;;;;;;;24.02;16.75;;;17.40;59.10;;;;;;5130351;27;20057;-65
2021/06/07 10:22:57;;;;;;;26.92;18.58;;;17.70;57.60;;;;;;5128708;27;20088;-64
2021/06/07 10:25:47;;;;;;;28.60;17.63;;;17.70;57.00;;;;;;5128254;27;20069;-65
2021/06/07 10:28:38;;;;;;;29.60;19.02;;;17.90;54.90;;;;;;5125296;27;20091;-64
2021/06/07 10:31:27;;;;;;;29.27;18.40;;;18.00;52.50;;;;;;5129374;27;20695;-64
2021/06/07 10:34:15;;;;;;;24.73;17.52;;;18.20;52.10;;;;;;5127454;27;20135;-66
2021/06/07 10:37:03;;;;;;;25.27;17.27;;;18.20;52.70;;;;;;5133566;27;20516;-64
2021/06/07 10:39:52;;;;;;;25.27;17.27;;;18.20;49.70;;;;;;5124712;27;20436;-65
2021/06/07 10:42:57;;;;;;;22.80;16.48;;;18.20;51.60;;;;;;5121748;27;20032;-65
2021/06/07 10:45:46;;;;;;;23.95;16.00;;;18.40;49.80;;;;;;5126470;27;20125;-66
2021/06/07 10:48:35;;;;;;;19.48;13.63;;;18.30;50.30;;;;;;5130863;27;20455;-66
2021/06/07 10:51:26;;;;;;;18.67;14.55;;;18.40;50.20;;;;;;5109598;27;20173;-64
2021/06/07 10:54:30;;;;;;;21.90;16.08;;;18.50;49.00;;;;;;5124231;27;20050;-65
2021/06/07 10:57:41;;;;;;;21.98;15.38;;;18.30;47.50;;;;;;5128236;27;20047;-66
2021/06/07 11:00:35;;;;;;;22.25;15.68;;;18.60;50.90;;;;;;5109372;27;20089;-65
2021/06/07 11:03:25;;;;;;;21.85;16.73;;;18.90;43.40;;;;;;5128353;27;20494;-65
2021/06/07 11:06:18;;;;;;;22.17;16.70;;;18.70;41.90;;;;;;5135148;27;20043;-64
2021/06/07 11:09:08;;;;;;;22.35;16.58;;;18.40;46.90;;;;;;5109245;27;20476;-66
2021/06/07 11:11:55;;;;;;;25.58;18.60;;;18.80;44.90;;;;;;5122934;27;20108;-66
2021/06/07 11:15:08;;;;;;;25.10;18.10;;;18.70;45.70;;;;;;5127662;27;20049;-65
2021/06/07 11:18:21;;;;;;;23.38;18.13;;;18.90;40.00;;;;;;5126882;27;20043;-66
2021/06/07 11:21:29;;;;;;;20.58;15.77;;;19.10;43.40;;;;;;5128205;27;20084;-64
2021/06/07 11:24:26;;;;;;;26.30;18.65;;;18.70;46.20;;;;;;5128719;27;20490;-65
2021/06/07 11:27:33;;;;;;;27.92;18.27;;;18.60;44.70;;;;;;5125894;27;20070;-64
2021/06/07 11:30:22;;;;;;;26.35;17.83;;;18.40;49.50;;;;;;5123392;27;20043;-64
2021/06/07 11:33:10;;;;;;;27.17;19.10;;;18.30;50.30;;;;;;5121085;27;20050;-65
2021/06/07 11:36:05;;;;;;;26.02;18.45;;;18.30;49.50;;;;;;5122852;27;20365;-65
2021/06/07 11:39:00;;;;;;;25.95;19.27;;;18.50;47.90;;;;;;5129376;27;20200;-65
2021/06/07 11:41:52;;;;;;;;;;;18.20;49.70;;;;;;5128598;27;20167;-65
2021/06/07 11:44:57;;;;;;;26.92;19.70;;;18.10;49.80;;;;;;5127167;27;19927;-65
2021/06/07 11:47:51;;;;;;;28.45;19.63;;;18.10;50.30;;;;;;5121552;27;20131;-64
2021/06/07 11:50:41;;;;;;;24.98;19.08;;;18.30;50.80;;;;;;5124795;27;20054;-64
2021/06/07 11:53:32;;;;;;;27.77;19.45;;;18.50;48.20;;;;;;5127902;27;20047;-66
2021/06/07 11:56:22;;;;;;;25.50;18.92;;;18.50;48.30;;;;;;5129199;27;20121;-64
2021/06/07 11:59:10;;;;;;;31.70;20.27;;;18.30;51.70;;;;;;5125620;27;20418;-66
2021/06/07 12:02:09;;;;;;;30.77;20.50;;;18.40;52.20;;;;;;5118716;27;20629;-65
2021/06/07 12:05:05;;;;;;;28.25;21.13;;;18.40;52.80;;;;;;5121367;27;20050;-65
2021/06/07 12:07:53;;;;;;;29.00;20.20;;;18.40;52.90;;;;;;5121181;27;20151;-65
2021/06/07 12:10:44;;;;;;;26.52;19.42;;;18.60;53.00;;;;;;5128224;27;20126;-65
2021/06/07 12:13:34;;;;;;;26.02;19.20;;;18.80;54.10;;;;;;5126013;27;20176;-65
2021/06/07 12:16:22;;;;;;;22.92;16.75;;;18.90;56.60;;;;;;5119936;27;20481;-65
2021/06/07 12:19:10;;;;;;;24.13;17.40;;;18.60;49.80;;;;;;5124335;27;20046;-65
2021/06/07 12:48:38;;;;;;;31.42;20.77;;;18.30;60.90;;;;;;6183204;23;20350;-65
2021/06/07 12:51:26;;;;;;;32.47;21.42;;;18.30;63.10;;;;;;6183582;23;20488;-66
2021/06/07 12:54:14;;;;;;;27.65;19.65;;;18.30;63.10;;;;;;6179936;23;20363;-65
2021/06/07 12:57:06;;;;;;;29.65;21.70;;;18.10;60.80;;;;;;6183266;23;20131;-65
2021/06/07 12:59:57;;;;;;;30.50;21.85;;;18.50;65.10;;;;;;6182677;23;20027;-65
2021/06/07 13:02:48;;;;;;;30.20;22.30;;;18.40;62.50;;;;;;6186642;23;20025;-65
2021/06/07 13:05:38;;;;;;;37.35;24.38;;;18.40;60.10;;;;;;6161158;23;20362;-65
2021/06/07 13:08:26;;;;;;;32.92;22.10;;;18.60;61.30;;;;;;6184907;23;20096;-65
2021/06/07 13:11:14;;;;;;;28.92;21.63;;;18.50;58.60;;;;;;6183011;23;20029;-65
2021/06/07 13:14:03;;;;;;;35.25;23.35;;;18.40;61.10;;;;;;6181369;23;20153;-65
2021/06/07 13:16:53;;;;;;;33.33;23.67;;;18.70;63.80;;;;;;6184194;23;20020;-64
2021/06/07 13:19:45;;;;;;;31.20;22.17;;;18.70;63.20;;;;;;6181911;23;20701;-65
2021/06/07 13:22:38;;;;;;;32.22;23.25;;;18.80;58.10;;;;;;6184773;23;20052;-65
2021/06/07 13:25:30;;;;;;;32.15;22.55;;;19.00;61.60;;;;;;6183542;23;20063;-65
2021/06/07 13:28:22;;;;;;;30.95;22.02;;;19.20;56.60;;;;;;6185314;23;20051;-64
2021/06/07 13:31:10;;;;;;;34.13;22.05;;;19.30;53.70;;;;;;6183683;23;20035;-65
2021/06/07 13:34:11;;;;;;;29.40;22.17;;;19.00;56.60;;;;;;6185210;23;20458;-66
2021/06/07 13:37:10;;;;;;;28.65;21.05;;;19.20;57.30;;;;;;6175084;23;20387;-65
2021/06/07 13:40:09;;;;;;;32.72;23.52;;;19.20;61.00;;;;;;6176289;23;20036;-65
2021/06/07 13:43:09;;;;;;;31.95;23.23;;;18.90;55.80;;;;;;6178282;23;20025;-66
2021/06/07 13:45:58;;;;;;;32.05;21.83;;;19.00;58.30;;;;;;6150883;23;20382;-65
2021/06/07 13:48:46;;;;;;;31.10;22.65;;;19.00;56.80;;;;;;6208908;23;20103;-64
2021/06/07 13:51:35;;;;;;;34.05;21.33;;;19.10;60.30;;;;;;6185779;23;20032;-66
2021/06/07 13:54:23;;;;;;;30.27;21.88;;;19.00;55.90;;;;;;6206650;23;20021;-65
2021/06/07 13:57:13;;;;;;;31.50;22.65;;;19.50;57.00;;;;;;6207116;23;20052;-67
2021/06/07 14:00:00;;;;;;;27.85;21.17;;;19.50;56.20;;;;;;6206719;23;20052;-66
2021/06/07 14:02:48;;;;;;;30.75;22.83;;;19.10;53.50;;;;;;6208904;23;20071;-67
2021/06/07 14:05:38;;;;;;;33.28;22.98;;;18.70;59.40;;;;;;6204220;23;20516;-67
2021/06/07 14:08:28;;;;;;;33.05;21.88;;;18.70;61.40;;;;;;6185017;23;20025;-65
2021/06/07 14:11:19;;;;;;;32.47;22.88;;;18.70;59.60;;;;;;6207960;23;20452;-67
2021/06/07 14:14:13;;;;;;;30.08;21.42;;;18.80;59.20;;;;;;6205861;23;20028;-66
2021/06/07 14:17:01;;;;;;;26.70;19.80;;;19.10;54.10;;;;;;6165400;23;20353;-67
2021/06/07 14:19:49;;;;;;;25.67;19.30;;;19.10;53.50;;;;;;6184971;23;20032;-66
2021/06/07 14:25:46;;;;;;;26.52;18.17;;;18.90;53.20;;;;;;6162616;23;20476;-66
2021/06/07 14:28:34;;;;;;;26.13;17.73;;;18.80;55.80;;;;;;6209239;23;20424;-65
2021/06/07 14:31:24;;;;;;;25.00;18.13;;;18.50;56.30;;;;;;6208264;23;20020;-66
2021/06/07 14:34:12;;;;;;;26.42;17.83;;;18.40;56.00;;;;;;6202680;23;20028;-68
2021/06/07 14:37:01;;;;;;;23.30;17.08;;;18.30;56.50;;;;;;6208677;23;20468;-66
2021/06/07 14:39:49;;;;;;;25.33;17.48;;;18.50;55.80;;;;;;6186701;23;20033;-67
2021/06/07 14:42:37;;;;;;;24.33;17.55;;;18.70;56.10;;;;;;6179894;23;20324;-66
2021/06/07 14:45:25;;;;;;;27.35;18.52;;;18.60;54.90;;;;;;6180440;23;20017;-68
2021/06/07 14:48:15;;;;;;;22.42;16.58;;;18.50;52.90;;;;;;6207138;23;20356;-68
2021/06/07 14:51:06;;;;;;;23.05;16.75;;;19.00;56.80;;;;;;6204755;23;20025;-67
2021/06/07 14:53:56;;;;;;;22.90;16.38;;;19.00;48.00;;;;;;6206566;23;20024;-67